createdAt,value
2019-05-02T00:01:01.769Z,9.00
2019-05-02T00:03:31.328Z,8.90
2019-05-02T00:06:02.902Z,9.00
2019-05-02T00:08:33.177Z,8.90
2019-05-02T00:11:04.730Z,8.90
2019-05-02T00:13:33.860Z,8.90
2019-05-02T00:16:03.035Z,8.90
2019-05-02T00:18:37.177Z,8.70
2019-05-02T00:21:03.476Z,8.60
2019-05-02T00:23:32.347Z,8.70
2019-05-02T00:26:01.355Z,8.70
2019-05-02T00:28:30.309Z,8.70
2019-05-02T00:30:59.327Z,8.80
2019-05-02T00:33:29.248Z,8.70
2019-05-02T00:35:58.914Z,8.80
2019-05-02T00:38:27.913Z,8.80
2019-05-02T00:40:57.334Z,8.80
2019-05-02T00:43:28.952Z,8.90
2019-05-02T00:45:59.809Z,8.80
2019-05-02T00:48:37.492Z,8.90
2019-05-02T00:51:06.524Z,8.90
2019-05-02T00:53:35.481Z,8.90
2019-05-02T00:56:05.066Z,8.80
2019-05-02T00:58:35.149Z,8.70
2019-05-02T01:01:29.436Z,8.60
2019-05-02T01:03:58.960Z,8.60
2019-05-02T01:06:27.972Z,8.50
2019-05-02T01:08:57.020Z,8.50
2019-05-02T01:11:28.306Z,8.50
2019-05-02T01:13:57.735Z,8.40
2019-05-02T01:16:26.765Z,8.40
2019-05-02T01:18:55.776Z,8.30
2019-05-02T01:21:24.789Z,8.30
2019-05-02T01:23:53.714Z,8.30
2019-05-02T01:26:29.248Z,8.20
2019-05-02T01:29:05.227Z,8.20
2019-05-02T01:31:56.400Z,8.30
2019-05-02T01:34:54.212Z,8.30
2019-05-02T01:37:23.988Z,8.20
2019-05-02T01:39:52.992Z,8.10
2019-05-02T01:42:21.870Z,8.10
2019-05-02T01:44:50.873Z,8.10
2019-05-02T01:47:19.744Z,8.10
2019-05-02T01:49:51.974Z,8.10
2019-05-02T01:52:23.671Z,8.10
2019-05-02T01:54:53.216Z,8.10
2019-05-02T01:57:22.132Z,8.10
2019-05-02T01:59:51.151Z,8.20
2019-05-02T02:02:20.170Z,8.30
2019-05-02T02:04:52.252Z,8.30
2019-05-02T02:07:21.132Z,8.40
2019-05-02T02:09:50.224Z,8.30
2019-05-02T02:12:19.149Z,8.20
2019-05-02T02:14:53.307Z,8.00
2019-05-02T02:17:18.888Z,8.00
2019-05-02T02:19:52.626Z,8.00
2019-05-02T02:22:33.761Z,7.90
2019-05-02T02:25:22.338Z,7.90
2019-05-02T02:27:54.941Z,7.80
2019-05-02T02:30:24.455Z,7.80
2019-05-02T02:32:52.683Z,7.80
2019-05-02T02:35:21.597Z,7.80
2019-05-02T02:37:52.963Z,7.90
2019-05-02T02:40:21.316Z,7.80
2019-05-02T02:42:50.321Z,7.80
2019-05-02T02:45:51.869Z,7.80
2019-05-02T02:48:21.412Z,7.90
2019-05-02T02:50:50.423Z,7.90
2019-05-02T02:53:29.936Z,7.90
2019-05-02T02:56:01.811Z,7.80
2019-05-02T02:58:30.736Z,7.90
2019-05-02T03:00:59.777Z,7.90
2019-05-02T03:03:31.376Z,7.90
2019-05-02T03:06:05.569Z,7.80
2019-05-02T03:08:30.404Z,7.70
2019-05-02T03:10:59.484Z,7.60
2019-05-02T03:13:52.629Z,7.50
2019-05-02T03:16:17.993Z,7.40
2019-05-02T03:18:46.928Z,7.30
2019-05-02T03:21:20.342Z,7.30
2019-05-02T03:23:46.694Z,7.30
2019-05-02T03:26:17.248Z,7.30
2019-05-02T03:28:57.099Z,7.30
2019-05-02T03:31:29.776Z,7.30
2019-05-02T03:34:00.230Z,7.40
2019-05-02T03:36:29.042Z,7.40
2019-05-02T03:38:49.607Z,7.40
2019-05-02T03:41:20.707Z,7.40
2019-05-02T03:43:50.371Z,7.40
2019-05-02T03:46:20.559Z,7.40
2019-05-02T03:48:50.354Z,7.30
2019-05-02T03:51:21.916Z,7.30
2019-05-02T03:54:05.761Z,7.30
2019-05-02T03:56:23.713Z,7.20
2019-05-02T03:58:56.408Z,7.20
2019-05-02T04:01:23.978Z,7.20
2019-05-02T04:03:53.981Z,7.20
2019-05-02T04:06:23.683Z,7.30
2019-05-02T04:08:58.856Z,7.20
2019-05-02T04:11:32.808Z,7.10
2019-05-02T04:13:57.956Z,7.10
2019-05-02T04:16:30.253Z,7.10
2019-05-02T04:19:04.623Z,7.20
2019-05-02T04:21:34.632Z,7.30
2019-05-02T04:24:12.821Z,7.40
2019-05-02T04:26:35.353Z,7.40
2019-05-02T04:29:04.362Z,7.40
2019-05-02T04:31:33.797Z,7.40
2019-05-02T04:34:14.120Z,7.40
2019-05-02T04:36:34.036Z,7.40
2019-05-02T04:39:05.638Z,7.40
2019-05-02T04:41:34.705Z,7.50
2019-05-02T04:44:03.766Z,7.50
2019-05-02T04:46:32.690Z,7.40
2019-05-02T04:49:01.646Z,7.40
2019-05-02T04:51:31.976Z,7.40
2019-05-02T04:54:01.307Z,7.40
2019-05-02T04:56:30.343Z,7.30
2019-05-02T04:59:01.990Z,7.20
2019-05-02T05:01:33.098Z,7.20
2019-05-02T05:04:03.096Z,7.20
2019-05-02T05:06:31.156Z,7.20
2019-05-02T05:09:04.189Z,7.30
2019-05-02T05:11:30.772Z,7.30
2019-05-02T05:14:00.394Z,7.40
2019-05-02T05:16:29.412Z,7.50
2019-05-02T05:19:00.084Z,7.50
2019-05-02T05:21:28.906Z,7.50
2019-05-02T05:24:18.165Z,7.60
2019-05-02T05:26:50.279Z,7.60
2019-05-02T05:29:23.132Z,7.60
2019-05-02T05:31:49.950Z,7.50
2019-05-02T05:34:22.917Z,7.40
2019-05-02T05:36:49.548Z,7.40
2019-05-02T05:39:18.550Z,7.40
2019-05-02T05:41:51.045Z,7.50
2019-05-02T05:44:18.255Z,7.60
2019-05-02T05:46:49.442Z,7.70
2019-05-02T05:49:21.661Z,7.70
2019-05-02T05:51:49.474Z,7.70
2019-05-02T05:54:19.484Z,7.80
2019-05-02T05:56:49.113Z,8.10
2019-05-02T05:59:22.213Z,8.40
2019-05-02T06:01:51.539Z,8.70
2019-05-02T06:04:23.533Z,9.10
2019-05-02T06:06:54.130Z,9.50
2019-05-02T06:09:20.663Z,9.90
2019-05-02T06:11:50.699Z,10.30
2019-05-02T06:14:24.496Z,10.50
2019-05-02T06:16:51.775Z,10.70
2019-05-02T06:19:21.198Z,11.00
2019-05-02T06:21:50.135Z,11.20
2019-05-02T06:24:19.078Z,11.40
2019-05-02T06:26:49.906Z,11.60
2019-05-02T06:29:20.801Z,11.70
2019-05-02T06:31:49.542Z,11.90
2019-05-02T06:34:18.546Z,12.10
2019-05-02T06:36:48.453Z,12.30
2019-05-02T06:39:17.452Z,12.50
2019-05-02T06:41:46.421Z,12.80
2019-05-02T06:44:18.431Z,12.90
2019-05-02T06:46:46.161Z,13.10
2019-05-02T06:49:15.254Z,13.20
2019-05-02T06:51:44.383Z,13.40
2019-05-02T06:54:13.421Z,13.50
2019-05-02T06:56:43.045Z,13.70
2019-05-02T06:59:17.924Z,13.90
2019-05-02T07:01:43.972Z,14.00
2019-05-02T07:04:17.551Z,14.20
2019-05-02T07:06:57.168Z,14.30
2019-05-02T07:09:15.152Z,14.60
2019-05-02T07:11:56.660Z,14.80
2019-05-02T07:14:18.683Z,15.00
2019-05-02T07:17:00.816Z,15.10
2019-05-02T07:19:35.704Z,15.30
2019-05-02T07:22:04.828Z,15.40
2019-05-02T07:24:33.754Z,15.40
2019-05-02T07:27:02.808Z,15.50
2019-05-02T07:29:31.796Z,15.70
2019-05-02T07:32:00.749Z,15.90
2019-05-02T07:34:29.685Z,15.90
2019-05-02T07:36:58.721Z,16.10
2019-05-02T07:39:27.721Z,16.10
2019-05-02T07:42:00.606Z,16.10
2019-05-02T07:44:32.705Z,16.20
2019-05-02T07:47:02.750Z,16.30
2019-05-02T07:49:32.114Z,16.20
2019-05-02T07:51:59.773Z,16.40
2019-05-02T07:54:30.089Z,16.70
2019-05-02T07:57:02.062Z,16.80
2019-05-02T07:59:29.777Z,16.70
2019-05-02T08:01:58.797Z,16.60
2019-05-02T08:04:27.816Z,16.90
2019-05-02T08:06:56.752Z,17.10
2019-05-02T08:09:25.784Z,17.40
2019-05-02T08:11:54.808Z,17.60
2019-05-02T08:14:23.808Z,17.80
2019-05-02T08:17:05.011Z,17.70
2019-05-02T08:19:23.737Z,17.70
2019-05-02T08:21:52.732Z,17.70
2019-05-02T08:24:21.594Z,17.80
2019-05-02T08:27:04.160Z,17.80
2019-05-02T08:29:33.469Z,18.00
2019-05-02T08:32:02.477Z,17.90
2019-05-02T08:34:32.801Z,17.90
2019-05-02T08:37:03.415Z,17.90
2019-05-02T08:39:33.943Z,18.00
2019-05-02T08:42:03.678Z,18.10
2019-05-02T08:44:32.637Z,18.00
2019-05-02T08:47:01.629Z,17.90
2019-05-02T08:49:30.689Z,17.90
2019-05-02T08:51:59.719Z,17.90
2019-05-02T08:54:32.804Z,18.00
2019-05-02T08:57:00.547Z,18.00
2019-05-02T08:59:29.732Z,18.10
2019-05-02T09:01:58.732Z,18.00
2019-05-02T09:04:29.041Z,17.80
2019-05-02T09:07:00.492Z,17.70
2019-05-02T09:09:29.516Z,17.60
2019-05-02T09:12:09.675Z,17.50
2019-05-02T09:14:29.405Z,17.40
2019-05-02T09:17:00.291Z,17.40
2019-05-02T09:19:34.083Z,17.50
2019-05-02T09:21:59.901Z,17.40
2019-05-02T09:24:28.867Z,17.30
2019-05-02T09:26:57.881Z,17.40
2019-05-02T09:29:26.892Z,17.50
2019-05-02T09:31:55.934Z,17.70
2019-05-02T09:34:26.684Z,17.90
2019-05-02T09:36:55.476Z,18.20
2019-05-02T09:39:27.449Z,18.40
2019-05-02T09:41:55.148Z,18.50
2019-05-02T09:44:24.169Z,18.70
2019-05-02T09:46:56.872Z,18.90
2019-05-02T09:49:23.832Z,19.00
2019-05-02T09:51:59.077Z,19.40
2019-05-02T09:54:23.612Z,19.70
2019-05-02T09:56:52.634Z,19.70
2019-05-02T09:59:29.929Z,19.90
2019-05-02T10:01:56.835Z,20.10
2019-05-02T10:04:26.382Z,20.10
2019-05-02T10:06:55.332Z,20.00
2019-05-02T10:09:27.175Z,20.00
2019-05-02T10:11:54.996Z,19.90
2019-05-02T10:14:23.926Z,19.80
2019-05-02T10:16:53.144Z,19.90
2019-05-02T10:19:25.838Z,19.90
2019-05-02T10:21:56.184Z,19.70
2019-05-02T10:24:23.748Z,19.60
2019-05-02T10:26:57.093Z,19.60
2019-05-02T10:29:28.535Z,19.60
2019-05-02T10:31:54.281Z,19.40
2019-05-02T10:34:23.308Z,19.50
2019-05-02T10:36:58.545Z,19.60
2019-05-02T10:39:23.610Z,19.90
2019-05-02T10:41:52.853Z,19.90
2019-05-02T10:44:22.606Z,19.70
2019-05-02T10:46:55.784Z,19.60
2019-05-02T10:49:32.079Z,19.30
2019-05-02T10:52:02.613Z,19.60
2019-05-02T10:54:33.661Z,19.90
2019-05-02T10:57:03.641Z,20.30
2019-05-02T10:59:32.869Z,20.20
2019-05-02T11:02:24.953Z,20.20
2019-05-02T11:04:57.005Z,20.40
2019-05-02T11:07:26.515Z,20.60
2019-05-02T11:09:57.267Z,20.50
2019-05-02T11:12:43.519Z,20.70
2019-05-02T11:15:21.950Z,20.90
2019-05-02T11:17:52.882Z,21.00
2019-05-02T11:20:23.104Z,20.70
2019-05-02T11:22:54.508Z,20.80
2019-05-02T11:25:23.130Z,20.90
2019-05-02T11:27:52.600Z,21.00
2019-05-02T11:30:26.397Z,21.10
2019-05-02T11:32:52.516Z,21.30
2019-05-02T11:35:22.385Z,21.60
2019-05-02T11:37:51.728Z,21.90
2019-05-02T11:40:22.760Z,21.90
2019-05-02T11:42:52.205Z,22.00
2019-05-02T11:45:22.686Z,22.30
2019-05-02T11:47:54.443Z,22.30
2019-05-02T11:50:26.659Z,22.40
2019-05-02T11:52:53.190Z,22.60
2019-05-02T11:55:24.665Z,23.00
2019-05-02T11:57:52.912Z,23.10
2019-05-02T12:00:21.932Z,23.40
2019-05-02T12:02:58.749Z,23.50
2019-05-02T12:05:39.395Z,23.80
2019-05-02T12:08:09.601Z,23.60
2019-05-02T12:10:39.237Z,23.50
2019-05-02T12:13:13.838Z,23.00
2019-05-02T12:15:41.592Z,22.50
2019-05-02T12:18:09.781Z,22.10
2019-05-02T12:20:38.731Z,22.00
2019-05-02T12:23:09.203Z,21.50
2019-05-02T12:25:38.281Z,21.40
2019-05-02T12:28:07.525Z,21.40
2019-05-02T12:30:37.873Z,21.50
2019-05-02T12:33:07.063Z,21.40
2019-05-02T12:35:36.100Z,21.30
2019-05-02T12:38:05.212Z,20.90
2019-05-02T12:40:34.229Z,20.80
2019-05-02T12:43:03.251Z,20.80
2019-05-02T12:45:33.709Z,20.60
2019-05-02T12:48:02.777Z,20.40
2019-05-02T12:50:32.229Z,20.20
2019-05-02T12:53:02.919Z,20.40
2019-05-02T12:55:32.572Z,20.60
2019-05-02T12:58:04.856Z,20.60
2019-05-02T13:00:33.890Z,20.30
2019-05-02T13:03:14.199Z,19.90
2019-05-02T13:05:43.132Z,19.70
2019-05-02T13:08:12.421Z,19.40
2019-05-02T13:11:14.320Z,19.10
2019-05-02T13:13:43.675Z,18.90
2019-05-02T13:16:12.807Z,18.90
2019-05-02T13:18:42.456Z,18.80
2019-05-02T13:21:23.363Z,18.80
2019-05-02T13:24:24.597Z,18.80
2019-05-02T13:26:59.306Z,18.60
2019-05-02T13:29:24.261Z,18.30
2019-05-02T13:32:03.061Z,18.30
2019-05-02T13:34:41.969Z,18.20
2019-05-02T13:37:12.476Z,18.40
2019-05-02T13:39:59.304Z,18.30
2019-05-02T13:42:28.325Z,18.10
2019-05-02T13:45:02.821Z,17.90
2019-05-02T13:47:32.543Z,17.80
2019-05-02T13:50:03.961Z,17.70
2019-05-02T13:52:33.219Z,17.70
2019-05-02T13:55:02.608Z,17.60
2019-05-02T13:57:35.011Z,17.70
2019-05-02T14:00:02.461Z,17.60
2019-05-02T14:02:36.720Z,17.60
2019-05-02T14:05:07.145Z,17.50
2019-05-02T14:07:36.181Z,17.50
2019-05-02T14:10:12.500Z,17.50
2019-05-02T14:12:49.748Z,17.20
2019-05-02T14:15:22.122Z,17.20
2019-05-02T14:17:52.524Z,17.00
2019-05-02T14:20:22.533Z,16.90
2019-05-02T14:22:52.730Z,16.80
2019-05-02T14:25:22.511Z,16.80
2019-05-02T14:27:55.495Z,16.80
2019-05-02T14:30:36.052Z,16.90
2019-05-02T14:32:54.944Z,16.70
2019-05-02T14:35:29.378Z,16.80
2019-05-02T14:38:13.122Z,16.60
2019-05-02T14:41:03.384Z,16.60
2019-05-02T14:43:53.209Z,16.50
2019-05-02T14:46:28.917Z,16.30
2019-05-02T14:48:54.984Z,16.20
2019-05-02T14:51:27.780Z,16.20
2019-05-02T14:53:57.416Z,16.20
2019-05-02T14:56:37.491Z,16.20
2019-05-02T14:59:09.226Z,16.20
2019-05-02T15:01:36.457Z,16.10
2019-05-02T15:04:08.209Z,16.10
2019-05-02T15:06:38.386Z,16.00
2019-05-02T15:09:08.024Z,15.90
2019-05-02T15:11:42.615Z,15.80
2019-05-02T15:14:11.357Z,15.80
2019-05-02T15:16:44.658Z,15.70
2019-05-02T15:19:12.601Z,15.70
2019-05-02T15:21:42.242Z,15.50
2019-05-02T15:24:11.961Z,15.50
2019-05-02T15:26:41.852Z,15.40
2019-05-02T15:29:12.066Z,15.40
2019-05-02T15:31:46.820Z,15.20
2019-05-02T15:34:27.518Z,15.00
2019-05-02T15:36:56.449Z,14.90
2019-05-02T15:41:55.977Z,14.50
2019-05-02T15:44:27.081Z,14.40
2019-05-02T15:46:58.526Z,14.30
2019-05-02T15:49:26.573Z,14.20
2019-05-02T15:51:55.492Z,14.20
2019-05-02T15:54:24.421Z,14.20
2019-05-02T15:57:00.638Z,14.10
2019-05-02T15:59:43.232Z,14.00
2019-05-02T16:02:10.456Z,14.00
2019-05-02T16:04:41.741Z,13.90
2019-05-02T16:07:12.155Z,13.70
2019-05-02T16:09:41.720Z,13.60
2019-05-02T16:12:12.232Z,13.60
2019-05-02T16:14:42.812Z,13.40
2019-05-02T16:17:12.446Z,13.10
2019-05-02T16:19:46.692Z,13.00
2019-05-02T16:22:17.142Z,12.90
2019-05-02T16:24:48.729Z,12.60
2019-05-02T16:27:23.778Z,12.40
2019-05-02T16:29:47.763Z,12.40
2019-05-02T16:32:35.663Z,12.40
2019-05-02T16:35:12.291Z,12.30
2019-05-02T16:37:38.955Z,12.20
2019-05-02T16:40:08.757Z,12.10
2019-05-02T16:42:38.812Z,12.00
2019-05-02T16:45:09.092Z,11.80
2019-05-02T16:47:38.114Z,11.70
2019-05-02T16:50:08.613Z,11.60
2019-05-02T16:52:38.159Z,11.50
2019-05-02T16:55:13.598Z,11.40
2019-05-02T16:57:39.759Z,11.40
2019-05-02T17:00:11.386Z,11.30
2019-05-02T17:02:44.910Z,11.30
2019-05-02T17:05:12.457Z,11.20
2019-05-02T17:08:10.838Z,11.30
2019-05-02T17:10:56.742Z,11.30
2019-05-02T17:13:27.453Z,11.30
2019-05-02T17:15:54.870Z,11.40
2019-05-02T17:18:24.457Z,11.40
2019-05-02T17:20:56.786Z,11.40
2019-05-02T17:23:24.151Z,11.50
2019-05-02T17:25:53.034Z,11.60
2019-05-02T17:28:22.375Z,11.50
2019-05-02T17:30:52.452Z,11.60
2019-05-02T17:33:21.851Z,11.60
2019-05-02T17:35:52.248Z,11.50
2019-05-02T17:38:27.379Z,11.60
2019-05-02T17:40:54.355Z,11.60
2019-05-02T17:43:22.852Z,11.50
2019-05-02T17:45:51.862Z,11.40
2019-05-02T17:48:20.848Z,11.40
2019-05-02T17:51:07.296Z,11.30
2019-05-02T17:53:41.487Z,11.20
2019-05-02T17:56:07.057Z,11.20
2019-05-02T17:58:36.067Z,11.10
2019-05-02T18:01:07.917Z,10.90
2019-05-02T18:03:36.874Z,10.90
2019-05-02T18:06:07.467Z,10.90
2019-05-02T18:08:36.662Z,10.80
2019-05-02T18:11:05.699Z,10.80
2019-05-02T18:13:43.806Z,10.80
2019-05-02T18:16:16.652Z,10.80
2019-05-02T18:18:46.621Z,10.80
2019-05-02T18:21:17.724Z,10.80
2019-05-02T18:23:44.892Z,10.80
2019-05-02T18:26:13.904Z,10.80
2019-05-02T18:28:49.048Z,10.90
2019-05-02T18:31:13.812Z,11.00
2019-05-02T18:33:42.724Z,11.00
2019-05-02T18:36:11.664Z,10.90
2019-05-02T18:38:41.729Z,10.90
2019-05-02T18:41:12.034Z,10.80
2019-05-02T18:43:45.052Z,10.80
2019-05-02T18:46:12.783Z,10.70
2019-05-02T18:48:46.819Z,10.70
2019-05-02T18:51:17.253Z,10.60
2019-05-02T18:53:45.043Z,10.60
2019-05-02T18:56:14.044Z,10.50
2019-05-02T18:58:45.255Z,10.50
2019-05-02T19:01:17.839Z,10.50
2019-05-02T19:03:47.063Z,10.50
2019-05-02T19:06:16.044Z,10.50
2019-05-02T19:08:49.842Z,10.50
2019-05-02T19:11:18.250Z,10.50
2019-05-02T19:13:47.279Z,10.50
2019-05-02T19:16:19.384Z,10.60
2019-05-02T19:18:49.052Z,10.60
2019-05-02T19:21:17.896Z,10.60
2019-05-02T19:23:46.888Z,10.50
2019-05-02T19:26:15.824Z,10.50
2019-05-02T19:29:08.517Z,10.50
2019-05-02T19:31:46.015Z,10.50
2019-05-02T19:34:16.844Z,10.50
2019-05-02T19:36:43.570Z,10.50
2019-05-02T19:39:13.144Z,10.40
2019-05-02T19:41:43.900Z,10.40
2019-05-02T19:44:15.228Z,10.30
2019-05-02T19:46:43.625Z,10.30
2019-05-02T19:49:16.128Z,10.20
2019-05-02T19:51:43.464Z,10.20
2019-05-02T19:54:12.579Z,10.20
2019-05-02T19:56:45.985Z,10.20
2019-05-02T19:59:16.835Z,10.30
2019-05-02T20:01:43.046Z,10.30
2019-05-02T20:04:12.000Z,10.30
2019-05-02T20:06:41.838Z,10.30
2019-05-02T20:09:11.119Z,10.30
2019-05-02T20:11:42.436Z,10.30
2019-05-02T20:14:12.527Z,10.30
2019-05-02T20:16:52.629Z,10.30
2019-05-02T20:19:23.171Z,10.20
2019-05-02T20:22:14.077Z,10.20
2019-05-02T20:25:00.196Z,10.20
2019-05-02T20:27:28.408Z,10.20
2019-05-02T20:29:57.857Z,10.20
2019-05-02T20:32:26.941Z,10.20
2019-05-02T20:34:55.945Z,10.20
2019-05-02T20:37:25.300Z,10.20
2019-05-02T20:39:54.384Z,10.20
2019-05-02T20:42:23.410Z,10.20
2019-05-02T20:44:52.883Z,10.20
2019-05-02T20:47:25.176Z,10.20
2019-05-02T20:49:54.216Z,10.20
2019-05-02T20:52:23.245Z,10.10
2019-05-02T20:54:52.537Z,10.00
2019-05-02T20:57:21.552Z,10.00
2019-05-02T20:59:52.573Z,9.90
2019-05-02T21:02:21.376Z,9.90
2019-05-02T21:04:52.115Z,10.00
2019-05-02T21:07:29.422Z,10.00
2019-05-02T21:10:06.373Z,10.00
2019-05-02T21:12:35.367Z,10.00
2019-05-02T21:15:04.973Z,9.90
2019-05-02T21:17:33.891Z,9.80
2019-05-02T21:20:02.893Z,9.80
2019-05-02T21:22:32.849Z,9.70
2019-05-02T21:25:02.467Z,9.70
2019-05-02T21:27:32.445Z,9.60
2019-05-02T21:30:01.481Z,9.60
2019-05-02T21:32:32.057Z,9.60
2019-05-02T21:35:02.805Z,9.60
2019-05-02T21:37:32.025Z,9.50
2019-05-02T21:40:02.791Z,9.50
2019-05-02T21:42:31.952Z,9.60
2019-05-02T21:45:02.404Z,9.60
2019-05-02T21:47:31.890Z,9.60
2019-05-02T21:50:09.108Z,9.60
2019-05-02T21:52:57.187Z,9.50
2019-05-02T21:55:42.960Z,9.40
2019-05-02T21:58:12.130Z,9.30
2019-05-02T22:00:59.273Z,9.30
2019-05-02T22:03:28.288Z,9.30
2019-05-02T22:05:57.300Z,9.20
2019-05-02T22:08:26.348Z,9.20
2019-05-02T22:10:55.341Z,9.20
2019-05-02T22:13:24.208Z,9.20
2019-05-02T22:16:02.313Z,9.20
2019-05-02T22:18:32.146Z,9.30
2019-05-02T22:21:01.681Z,9.20
2019-05-02T22:23:33.590Z,9.20
2019-05-02T22:26:02.098Z,9.30
2019-05-02T22:28:32.739Z,9.30
2019-05-02T22:31:03.295Z,9.30
2019-05-02T22:33:32.854Z,9.30
2019-05-02T22:36:02.066Z,9.30
2019-05-02T22:38:44.358Z,9.30
2019-05-02T22:41:13.324Z,9.30
2019-05-02T22:43:42.326Z,9.20
2019-05-02T22:46:14.063Z,9.20
2019-05-02T22:48:43.228Z,9.20
2019-05-02T22:51:12.232Z,9.30
2019-05-02T22:53:41.810Z,9.20
2019-05-02T22:56:11.776Z,9.20
2019-05-02T22:58:42.086Z,9.10
2019-05-02T23:01:11.256Z,9.10
2019-05-02T23:03:41.853Z,9.10
2019-05-02T23:06:12.527Z,9.20
2019-05-02T23:08:43.428Z,9.20
2019-05-02T23:11:12.976Z,9.20
2019-05-02T23:13:42.364Z,9.20
2019-05-02T23:16:11.368Z,9.20
2019-05-02T23:18:40.288Z,9.20
2019-05-02T23:21:09.284Z,9.20
2019-05-02T23:23:38.288Z,9.20
2019-05-02T23:26:13.836Z,9.10
2019-05-02T23:28:44.920Z,9.10
2019-05-02T23:31:14.195Z,9.10
2019-05-02T23:33:58.434Z,9.00
2019-05-02T23:36:28.932Z,9.00
2019-05-02T23:38:58.069Z,9.00
2019-05-02T23:41:27.094Z,9.00
2019-05-02T23:43:56.096Z,9.00
2019-05-02T23:46:25.099Z,9.10
2019-05-02T23:48:54.100Z,9.20
2019-05-02T23:51:23.126Z,9.20
2019-05-02T23:53:52.786Z,9.20
2019-05-02T23:56:22.144Z,9.20
2019-05-02T23:58:51.955Z,9.20
